Time;durP1;ratioP1;P1;durP2;ratioP2;P2;SDS_P1;SDS_P2;PMS_P1;PMS_P2;Temp;Humidity;BMP_temperature;BMP_pressure;BME280_temperature;BME280_humidity;BME280_pressure;Samples;Min_cycle;Max_cycle;Signal;HPM_P1;HPM_P2
2022/03/23 00:00:43;;;;;;;14.57;11.80;;;;;;;3.39;100.00;101570.31;5020289;28;20647;-59
2022/03/23 00:03:10;;;;;;;14.57;12.50;;;;;;;3.38;100.00;101570.25;5025698;28;20694;-58
2022/03/23 00:05:38;;;;;;;14.33;11.97;;;;;;;3.34;100.00;101567.56;5021685;28;20644;-58
2022/03/23 00:08:04;;;;;;;12.77;11.47;;;;;;;3.30;100.00;101570.81;5021801;28;20215;-59
2022/03/23 00:10:30;;;;;;;13.13;11.53;;;;;;;3.30;100.00;101572.50;5025572;28;20191;-58
2022/03/23 00:12:57;;;;;;;13.70;12.30;;;;;;;3.27;100.00;101578.34;5026961;28;20542;-58
2022/03/23 00:15:23;;;;;;;11.87;10.67;;;;;;;3.24;100.00;101580.81;5026727;28;20184;-58
2022/03/23 00:17:48;;;;;;;13.23;11.87;;;;;;;3.20;100.00;101577.22;5021759;28;20185;-58
2022/03/23 00:20:14;;;;;;;13.00;11.33;;;;;;;3.15;100.00;101578.72;5025499;28;20191;-59
2022/03/23 00:22:40;;;;;;;13.33;11.93;;;;;;;3.12;100.00;101578.59;5024354;28;20203;-58
2022/03/23 00:25:06;;;;;;;12.67;11.33;;;;;;;3.08;100.00;101570.72;5023778;28;20663;-60
2022/03/23 00:27:32;;;;;;;13.23;11.83;;;;;;;3.04;100.00;101570.59;5021282;28;20207;-58
2022/03/23 00:29:57;;;;;;;13.47;11.90;;;;;;;3.03;100.00;101576.50;5023214;28;20207;-58
2022/03/23 00:32:22;;;;;;;18.40;14.23;;;;;;;2.99;100.00;101572.06;5024318;28;20184;-58
2022/03/23 00:34:48;;;;;;;15.83;13.10;;;;;;;2.93;100.00;101579.50;5020013;28;20203;-58
2022/03/23 00:37:14;;;;;;;15.50;13.43;;;;;;;2.87;100.00;101581.78;5021245;28;20191;-59
2022/03/23 00:39:39;;;;;;;14.60;13.10;;;;;;;2.83;100.00;101577.31;5023487;28;20212;-59
2022/03/23 00:42:05;;;;;;;14.73;12.73;;;;;;;2.79;100.00;101573.78;5020459;28;20666;-58
2022/03/23 00:44:30;;;;;;;13.77;12.07;;;;;;;2.76;100.00;101575.31;5021047;28;20195;-61
2022/03/23 00:46:55;;;;;;;15.70;12.47;;;;;;;2.71;100.00;101577.69;5027279;28;20232;-58
2022/03/23 00:49:21;;;;;;;13.80;12.33;;;;;;;2.65;100.00;101580.81;5030705;28;20203;-59
2022/03/23 00:51:46;;;;;;;14.83;13.33;;;;;;;2.63;100.00;101581.56;5021929;28;20276;-58
2022/03/23 00:54:12;;;;;;;14.60;13.13;;;;;;;2.60;100.00;101579.75;5024245;28;20267;-61
2022/03/23 00:56:37;;;;;;;15.10;13.17;;;;;;;2.58;100.00;101583.94;5026192;28;20199;-60
2022/03/23 00:59:03;;;;;;;15.20;13.60;;;;;;;2.58;100.00;101578.81;5026275;28;20216;-58
2022/03/23 01:01:30;;;;;;;16.73;12.67;;;;;;;2.56;100.00;101585.53;5027954;28;20192;-58
2022/03/23 01:03:55;;;;;;;14.10;12.63;;;;;;;2.55;100.00;101583.78;5025968;28;20185;-58
2022/03/23 01:06:20;;;;;;;13.67;12.27;;;;;;;2.55;100.00;101586.34;5021072;28;20271;-58
2022/03/23 01:08:46;;;;;;;15.53;13.10;;;;;;;2.54;100.00;101582.03;5028205;28;20310;-59
2022/03/23 01:11:11;;;;;;;15.87;13.53;;;;;;;2.53;100.00;101588.84;5023698;28;20241;-59
2022/03/23 01:13:37;;;;;;;17.33;13.70;;;;;;;2.52;100.00;101583.63;5020674;28;20570;-59
2022/03/23 01:16:04;;;;;;;18.60;15.23;;;;;;;2.48;100.00;101584.31;5025280;28;20270;-59
2022/03/23 01:18:29;;;;;;;16.77;14.03;;;;;;;2.42;100.00;101585.78;5021818;28;20250;-58
2022/03/23 01:20:54;;;;;;;15.83;14.23;;;;;;;2.38;100.00;101588.16;5025062;28;20180;-58
2022/03/23 01:23:20;;;;;;;16.67;14.90;;;;;;;2.33;100.00;101585.38;5024536;28;20202;-59
2022/03/23 01:25:45;;;;;;;15.90;14.17;;;;;;;2.33;100.00;101587.94;5019601;28;20194;-59
2022/03/23 01:28:13;;;;;;;15.60;13.97;;;;;;;2.32;100.00;101588.75;5021528;28;20219;-58
2022/03/23 01:30:38;;;;;;;15.70;13.30;;;;;;;2.29;100.00;101589.44;5028969;28;20202;-58
2022/03/23 01:33:03;;;;;;;14.17;12.63;;;;;;;2.26;100.00;101589.34;5022224;28;20180;-59
2022/03/23 01:35:29;;;;;;;14.73;13.23;;;;;;;2.22;100.00;101589.09;5023306;28;20203;-59
2022/03/23 01:37:54;;;;;;;15.50;13.03;;;;;;;2.17;100.00;101583.78;5025693;28;20284;-58
2022/03/23 01:40:20;;;;;;;15.17;13.60;;;;;;;2.13;100.00;101584.44;5024444;28;20532;-59
2022/03/23 01:42:45;;;;;;;15.00;12.83;;;;;;;2.07;100.00;101585.03;5023146;28;20193;-58
2022/03/23 01:45:10;;;;;;;17.47;13.67;;;;;;;2.07;100.00;101586.72;5026246;28;20549;-59
2022/03/23 01:47:37;;;;;;;15.03;13.53;;;;;;;2.07;100.00;101585.03;5020901;28;20207;-58
2022/03/23 01:50:05;;;;;;;14.80;13.30;;;;;;;2.08;100.00;101583.38;5025028;28;20227;-58
2022/03/23 01:52:33;;;;;;;15.37;13.77;;;;;;;2.08;100.00;101588.47;5021681;28;20210;-60
2022/03/23 01:55:01;;;;;;;16.13;14.43;;;;;;;2.07;100.00;101597.78;5026009;28;20537;-58
2022/03/23 01:57:28;;;;;;;16.40;14.03;;;;;;;2.05;100.00;101590.88;5020108;28;20202;-59
2022/03/23 01:59:53;;;;;;;14.77;13.07;;;;;;;2.02;100.00;101599.28;5025624;28;20212;-60
2022/03/23 02:02:19;;;;;;;15.27;13.40;;;;;;;2.01;100.00;101594.97;5023907;28;20682;-58
2022/03/23 02:04:45;;;;;;;17.07;13.53;;;;;;;1.99;100.00;101591.47;5024218;28;20687;-58
2022/03/23 02:07:10;;;;;;;16.23;14.10;;;;;;;1.98;100.00;101592.28;5025508;28;20215;-58
2022/03/23 02:09:36;;;;;;;15.20;13.60;;;;;;;1.95;100.00;101589.56;5017922;28;20290;-61
2022/03/23 02:12:02;;;;;;;15.60;13.90;;;;;;;1.93;100.00;101593.72;5027945;28;20531;-58
2022/03/23 02:14:28;;;;;;;15.73;13.87;;;;;;;1.89;100.00;101595.25;5023819;28;20690;-58
2022/03/23 02:16:54;;;;;;;14.97;13.30;;;;;;;1.89;100.00;101597.81;5022354;28;20183;-59
2022/03/23 02:19:21;;;;;;;15.47;13.87;;;;;;;1.87;100.00;101594.31;5023337;28;20214;-58
2022/03/23 02:21:54;;;;;;;17.63;13.83;;;;;;;1.86;100.00;101594.25;5019443;28;20283;-59
2022/03/23 02:24:28;;;;;;;14.73;13.13;;;;;;;1.83;100.00;101588.19;5023337;28;20194;-58
2022/03/23 02:26:55;;;;;;;16.03;13.50;;;;;;;1.80;100.00;101585.50;5026670;28;20211;-58
2022/03/23 02:29:24;;;;;;;16.53;14.20;;;;;;;1.75;100.00;101592.03;5013900;28;20207;-58
2022/03/23 02:31:50;;;;;;;15.73;13.97;;;;;;;1.70;100.00;101595.16;5020615;28;20194;-61
2022/03/23 02:34:16;;;;;;;16.17;14.43;;;;;;;1.64;100.00;101585.53;5021792;28;20440;-58
2022/03/23 02:36:42;;;;;;;15.40;13.90;;;;;;;1.61;100.00;101585.38;5023576;28;20210;-61
2022/03/23 02:39:08;;;;;;;15.47;13.90;;;;;;;1.60;100.00;101581.09;5027865;28;20206;-59
2022/03/23 02:41:33;;;;;;;16.47;14.27;;;;;;;1.60;100.00;101589.63;5027689;28;20647;-58
2022/03/23 02:44:00;;;;;;;16.67;14.93;;;;;;;1.62;100.00;101589.69;5024370;28;20196;-59
2022/03/23 02:46:26;;;;;;;16.40;14.77;;;;;;;1.65;100.00;101589.84;5026458;28;20215;-61
2022/03/23 02:48:51;;;;;;;16.33;14.63;;;;;;;1.67;100.00;101590.81;5024567;28;20242;-58
2022/03/23 02:51:17;;;;;;;18.10;15.30;;;;;;;1.68;100.00;101590.00;5027156;28;20183;-59
2022/03/23 03:02:55;;;;;;;19.03;16.93;;;;;;;1.55;100.00;101588.53;5001840;28;20302;-58
2022/03/23 03:05:20;;;;;;;17.93;16.03;;;;;;;1.51;100.00;101595.16;5025751;28;20275;-58
2022/03/23 03:10:30;;;;;;;17.23;15.43;;;;;;;1.45;100.00;101597.41;5022055;28;20700;-59
2022/03/23 03:12:56;;;;;;;17.07;15.37;;;;;;;1.43;100.00;101593.91;5026594;28;20266;-59
2022/03/23 03:15:22;;;;;;;16.43;14.80;;;;;;;1.43;100.00;101596.47;5023605;28;20266;-59
2022/03/23 03:17:50;;;;;;;16.93;15.13;;;;;;;1.43;100.00;101595.56;5021175;28;22344;-59
2022/03/23 03:20:16;;;;;;;16.47;14.60;;;;;;;1.42;100.00;101599.81;5028319;28;20184;-58
2022/03/23 03:22:43;;;;;;;17.90;15.23;;;;;;;1.39;100.00;101604.75;5038101;28;20241;-58
2022/03/23 03:25:13;;;;;;;17.30;15.50;;;;;;;1.38;100.00;101603.00;5036861;28;20253;-58
2022/03/23 03:27:39;;;;;;;17.60;15.80;;;;;;;1.35;100.00;101606.28;5024122;28;20338;-59
2022/03/23 03:30:07;;;;;;;16.87;15.03;;;;;;;1.32;100.00;101606.13;5027158;28;20645;-59
2022/03/23 03:35:54;;;;;;;17.53;15.00;;;;;;;1.23;100.00;101609.88;5028703;28;20231;-61
2022/03/23 03:38:19;;;;;;;17.50;15.53;;;;;;;1.20;100.00;101603.84;5026416;28;20211;-60
2022/03/23 03:40:45;;;;;;;17.23;14.60;;;;;;;1.16;100.00;101601.91;5025578;28;20336;-61
2022/03/23 03:43:11;;;;;;;16.47;14.77;;;;;;;1.15;100.00;101609.50;5025301;28;20183;-61
2022/03/23 03:45:36;;;;;;;16.67;14.87;;;;;;;1.12;100.00;101609.34;5026268;28;20245;-58
2022/03/23 03:48:01;;;;;;;18.33;15.10;;;;;;;1.08;100.00;101615.97;5024454;28;20223;-58
2022/03/23 03:50:27;;;;;;;16.47;14.77;;;;;;;1.05;100.00;101621.78;5024649;28;20218;-59
2022/03/23 03:52:52;;;;;;;17.57;15.53;;;;;;;1.01;100.00;101617.31;5022939;28;20831;-58
2022/03/23 03:55:17;;;;;;;18.07;16.00;;;;;;;1.02;100.00;101618.19;5027204;28;20566;-58
2022/03/23 03:57:43;;;;;;;16.83;15.03;;;;;;;1.04;100.00;101621.69;5023898;28;20175;-58
2022/03/23 04:00:10;;;;;;;18.00;15.90;;;;;;;1.06;100.00;101620.09;5023485;28;20183;-59
2022/03/23 04:02:35;;;;;;;19.37;16.13;;;;;;;1.06;100.00;101622.66;5021480;28;20270;-60
2022/03/23 04:05:01;;;;;;;18.17;15.83;;;;;;;1.05;100.00;101626.00;5026320;28;20322;-59
2022/03/23 04:07:26;;;;;;;18.67;16.13;;;;;;;1.03;100.00;101630.13;5030396;28;20706;-59
2022/03/23 04:09:51;;;;;;;18.43;15.40;;;;;;;1.00;100.00;101625.78;5022996;28;20615;-59
2022/03/23 04:12:16;;;;;;;16.70;14.90;;;;;;;0.97;100.00;101630.69;5025918;28;20202;-59
2022/03/23 04:14:42;;;;;;;18.20;16.27;;;;;;;0.93;100.00;101633.03;5023563;28;20187;-59
2022/03/23 04:17:07;;;;;;;21.90;16.30;;;;;;;0.88;100.00;101637.88;5024562;28;20190;-59
2022/03/23 04:19:32;;;;;;;17.20;15.30;;;;;;;0.86;100.00;101636.91;5025886;28;20245;-59
2022/03/23 04:21:58;;;;;;;17.97;16.03;;;;;;;0.84;100.00;101636.81;5024607;28;20392;-59
2022/03/23 04:24:23;;;;;;;17.67;15.50;;;;;;;0.84;100.00;101636.81;5025754;28;20244;-59
2022/03/23 04:26:49;;;;;;;19.90;15.57;;;;;;;0.82;100.00;101643.53;5024751;28;20221;-59
2022/03/23 04:29:14;;;;;;;17.67;15.77;;;;;;;0.81;100.00;101651.06;5023907;28;20345;-59
2022/03/23 04:31:39;;;;;;;18.53;16.53;;;;;;;0.80;100.00;101641.69;5031698;28;20179;-59
2022/03/23 04:34:05;;;;;;;18.67;16.67;;;;;;;0.74;100.00;101645.69;5027705;28;20213;-59
2022/03/23 04:36:31;;;;;;;16.60;14.83;;;;;;;0.72;100.00;101647.25;5030736;28;20214;-59
2022/03/23 04:38:56;;;;;;;19.27;16.77;;;;;;;0.69;100.00;101653.84;5029286;28;20225;-61
2022/03/23 04:41:22;;;;;;;17.60;15.70;;;;;;;0.70;100.00;101659.03;5025619;28;20646;-59
2022/03/23 04:43:47;;;;;;;18.43;16.53;;;;;;;0.73;100.00;101659.22;5031511;28;20188;-59
2022/03/23 04:46:13;;;;;;;19.87;16.67;;;;;;;0.74;100.00;101660.97;5031372;28;20184;-59
2022/03/23 04:48:39;;;;;;;19.13;17.10;;;;;;;0.75;100.00;101664.38;5022582;28;20321;-58
2022/03/23 04:51:05;;;;;;;19.70;17.47;;;;;;;0.70;100.00;101661.59;5016258;28;20198;-58
2022/03/23 04:53:30;;;;;;;18.80;16.87;;;;;;;0.69;100.00;101664.94;5024986;28;20188;-61
2022/03/23 04:55:55;;;;;;;19.30;17.30;;;;;;;0.70;100.00;101668.34;5031507;28;20548;-59
2022/03/23 04:58:21;;;;;;;19.70;17.57;;;;;;;0.68;100.00;101668.28;5028860;28;20191;-59
2022/03/23 05:00:46;;;;;;;20.27;17.43;;;;;;;0.67;100.00;101663.97;5025436;28;20647;-59
2022/03/23 05:03:13;;;;;;;19.00;17.00;;;;;;;0.57;100.00;101670.22;5028563;28;20190;-59
2022/03/23 05:05:39;;;;;;;18.60;16.60;;;;;;;0.50;100.00;101667.28;5026609;28;20186;-59
2022/03/23 05:08:05;;;;;;;17.53;15.70;;;;;;;0.42;100.00;101670.28;5020187;28;20206;-59
2022/03/23 05:10:30;;;;;;;16.87;15.17;;;;;;;0.41;100.00;101670.19;5028773;28;20191;-59
2022/03/23 05:12:56;;;;;;;18.17;15.53;;;;;;;0.38;100.00;101677.69;5028377;28;20227;-59
2022/03/23 05:15:21;;;;;;;17.83;14.93;;;;;;;0.36;100.00;101669.94;5024336;28;20191;-59
2022/03/23 05:17:46;;;;;;;16.43;14.30;;;;;;;0.37;100.00;101681.03;5028213;28;20175;-59
2022/03/23 05:20:14;;;;;;;16.30;14.60;;;;;;;0.36;100.00;101675.03;5025517;28;20171;-59
2022/03/23 05:22:39;;;;;;;19.50;16.43;;;;;;;0.37;100.00;101674.25;5029881;28;20226;-59
2022/03/23 05:25:06;;;;;;;18.27;16.07;;;;;;;0.37;100.00;101681.88;5027214;28;20178;-59
2022/03/23 05:27:33;;;;;;;19.13;16.50;;;;;;;0.38;100.00;101678.56;5029003;28;20252;-59
2022/03/23 05:29:59;;;;;;;24.60;18.10;;;;;;;0.42;100.00;101684.69;5029687;28;20206;-59
2022/03/23 05:32:25;;;;;;;28.13;20.23;;;;;;;0.44;100.00;101683.09;5035051;28;20286;-59
2022/03/23 05:34:50;;;;;;;23.27;18.80;;;;;;;0.48;100.00;101685.03;5024144;28;20262;-59
2022/03/23 05:37:19;;;;;;;22.93;18.40;;;;;;;0.51;100.00;101690.28;5029088;28;20175;-59
2022/03/23 05:39:45;;;;;;;21.30;17.70;;;;;;;0.56;100.00;101695.63;5026121;28;20214;-59
2022/03/23 05:42:11;;;;;;;21.07;17.70;;;;;;;0.61;100.00;101689.09;5019947;28;20187;-59
2022/03/23 05:44:37;;;;;;;22.63;18.63;;;;;;;0.67;100.00;101692.00;5020619;28;20198;-59
2022/03/23 05:47:04;;;;;;;23.70;19.13;;;;;;;0.74;100.00;101704.28;5021709;28;20207;-59
2022/03/23 05:49:29;;;;;;;21.83;18.50;;;;;;;0.81;100.00;101700.41;5026968;28;20722;-59
2022/03/23 05:51:58;;;;;;;20.57;17.97;;;;;;;0.87;100.00;101702.41;5030580;28;20184;-59
2022/03/23 05:54:23;;;;;;;21.97;17.53;;;;;;;0.95;100.00;101702.81;5030689;28;20277;-59
2022/03/23 05:56:52;;;;;;;19.03;17.03;;;;;;;1.03;100.00;101702.41;5027606;28;20182;-59
2022/03/23 05:59:19;;;;;;;20.73;17.60;;;;;;;1.12;100.00;101702.03;5014813;28;20256;-59
2022/03/23 06:01:45;;;;;;;20.30;16.87;;;;;;;1.18;100.00;101704.88;5027564;28;20209;-59
2022/03/23 06:04:10;;;;;;;19.43;16.80;;;;;;;1.23;100.00;101712.75;5030772;28;20532;-59
2022/03/23 06:06:36;;;;;;;24.73;18.53;;;;;;;1.29;100.00;101708.00;5024905;28;20192;-59
2022/03/23 06:09:02;;;;;;;19.37;17.20;;;;;;;1.41;100.00;101711.97;5024109;28;20664;-59
2022/03/23 06:11:28;;;;;;;19.43;16.73;;;;;;;1.61;100.00;101713.88;5018251;28;20287;-59
2022/03/23 06:13:53;;;;;;;18.53;16.10;;;;;;;1.80;100.00;101712.25;5014135;28;21035;-59
2022/03/23 06:16:19;;;;;;;18.80;16.03;;;;;;;2.08;100.00;101713.63;5028574;28;20187;-59
2022/03/23 06:18:46;;;;;;;20.03;16.87;;;;;;;2.54;100.00;101708.16;5025207;28;20228;-59
2022/03/23 06:21:11;;;;;;;16.97;15.17;;;;;;;2.99;100.00;101709.31;5029396;28;20264;-59
2022/03/23 06:23:37;;;;;;;16.80;15.10;;;;;;;3.37;100.00;101714.38;5026590;28;20283;-59
2022/03/23 06:26:03;;;;;;;16.67;14.70;;;;;;;3.71;100.00;101721.81;5025203;28;20214;-59
2022/03/23 06:28:29;;;;;;;16.83;14.97;;;;;;;4.04;100.00;101713.78;5028516;28;22162;-59
2022/03/23 06:30:54;;;;;;;15.60;14.00;;;;;;;4.33;100.00;101715.75;5031842;28;20184;-59
2022/03/23 06:33:20;;;;;;;15.60;14.00;;;;;;;4.48;100.00;101712.94;5028124;28;20262;-59
2022/03/23 06:35:47;;;;;;;15.57;13.97;;;;;;;4.57;100.00;101716.72;5029957;28;20195;-59
2022/03/23 06:38:13;;;;;;;16.67;14.97;;;;;;;4.74;100.00;101721.63;5032138;28;20234;-59
2022/03/23 06:40:38;;;;;;;16.63;14.87;;;;;;;4.99;99.83;101725.13;5033807;28;20179;-59
2022/03/23 06:43:04;;;;;;;16.83;14.47;;;;;;;5.21;98.89;101723.34;5018364;28;20223;-59
2022/03/23 06:45:30;;;;;;;16.23;14.60;;;;;;;5.35;98.49;101729.84;5014871;28;20192;-59
2022/03/23 06:47:56;;;;;;;18.77;15.10;;;;;;;5.36;98.01;101729.03;5031411;28;20223;-59
2022/03/23 06:50:22;;;;;;;18.37;15.70;;;;;;;5.32;98.26;101735.72;5022666;28;20183;-59
2022/03/23 06:52:47;;;;;;;17.63;14.80;;;;;;;5.48;98.08;101726.91;5015829;28;20275;-59
2022/03/23 06:55:13;;;;;;;17.43;14.90;;;;;;;5.65;97.54;101731.75;5024696;28;20220;-59
2022/03/23 06:57:38;;;;;;;16.87;14.37;;;;;;;5.69;97.56;101732.72;5020286;28;20232;-59
2022/03/23 07:00:13;;;;;;;18.17;16.20;;;;;;;5.68;97.64;101741.25;5037939;28;20184;-59
2022/03/23 07:02:43;;;;;;;17.87;14.73;;;;;;;5.66;97.97;101738.63;5033912;28;20184;-59
2022/03/23 07:05:10;;;;;;;17.67;14.57;;;;;;;5.64;97.98;101741.13;5025768;28;20219;-58
2022/03/23 07:07:36;;;;;;;17.83;14.90;;;;;;;5.70;97.86;101731.91;5019085;28;20259;-59
2022/03/23 07:10:04;;;;;;;16.43;14.73;;;;;;;5.79;97.54;101742.47;5023383;28;20571;-59
2022/03/23 07:12:29;;;;;;;17.03;15.23;;;;;;;5.97;97.27;101746.50;5033155;28;20179;-59
2022/03/23 07:14:54;;;;;;;19.50;16.10;;;;;;;6.12;96.73;101747.03;5023916;28;20203;-59
2022/03/23 07:17:20;;;;;;;16.03;14.33;;;;;;;6.28;96.04;101745.84;5014664;28;20175;-59
2022/03/23 07:19:46;;;;;;;18.90;15.53;;;;;;;6.38;94.90;101741.88;5026487;28;20266;-59
2022/03/23 07:22:11;;;;;;;15.20;13.63;;;;;;;6.47;94.51;101738.72;5035636;28;20183;-59
2022/03/23 07:24:37;;;;;;;17.00;15.30;;;;;;;6.60;93.94;101750.25;5015288;28;20189;-59
2022/03/23 07:27:02;;;;;;;16.13;14.50;;;;;;;6.69;93.53;101748.84;5028977;28;20248;-59
2022/03/23 07:29:28;;;;;;;16.57;13.63;;;;;;;6.80;92.68;101750.88;5031235;28;20212;-59
2022/03/23 07:31:53;;;;;;;16.30;14.43;;;;;;;6.88;91.93;101754.56;5046457;28;20245;-59
2022/03/23 07:34:19;;;;;;;16.97;14.23;;;;;;;6.93;91.48;101763.28;5029443;28;20197;-59
2022/03/23 07:36:46;;;;;;;17.13;14.43;;;;;;;6.99;90.96;101766.03;5031716;28;20614;-59
2022/03/23 07:39:15;;;;;;;14.90;13.40;;;;;;;7.09;90.86;101761.16;5033247;28;20732;-59
2022/03/23 07:41:41;;;;;;;14.83;13.20;;;;;;;7.17;90.14;101760.56;5031299;28;20600;-59
2022/03/23 07:44:06;;;;;;;15.43;13.90;;;;;;;7.30;89.90;101760.91;5033750;28;20197;-59
2022/03/23 07:46:31;;;;;;;16.27;14.00;;;;;;;7.38;89.33;101767.16;5037499;28;20240;-59
2022/03/23 07:48:57;;;;;;;15.13;13.53;;;;;;;7.43;88.55;101770.72;5031896;28;20301;-59
2022/03/23 07:51:22;;;;;;;15.00;13.50;;;;;;;7.52;88.37;101764.94;5017734;28;20209;-59
2022/03/23 07:53:47;;;;;;;15.30;13.50;;;;;;;7.62;88.43;101776.38;5032638;28;20204;-59
2022/03/23 07:56:13;;;;;;;17.43;15.73;;;;;;;7.72;88.02;101774.91;5017635;28;20190;-58
2022/03/23 07:58:38;;;;;;;16.37;14.53;;;;;;;7.77;88.08;101774.22;5022531;28;20677;-59
2022/03/23 08:01:03;;;;;;;16.20;14.60;;;;;;;7.82;88.32;101776.91;5031263;28;20189;-59
2022/03/23 08:03:29;;;;;;;19.50;16.33;;;;;;;7.90;88.18;101779.69;5022100;28;20786;-59
2022/03/23 08:05:54;;;;;;;16.90;15.07;;;;;;;7.93;88.08;101783.22;5031287;28;20610;-59
2022/03/23 08:08:20;;;;;;;17.53;15.53;;;;;;;7.97;88.07;101775.56;5047066;28;20356;-59
2022/03/23 08:10:45;;;;;;;17.37;15.63;;;;;;;8.04;88.09;101780.06;5040202;28;20206;-59
2022/03/23 08:13:12;;;;;;;16.13;14.03;;;;;;;8.09;88.19;101773.31;5023443;28;20199;-59
2022/03/23 08:15:39;;;;;;;14.60;13.13;;;;;;;8.17;88.16;101778.63;5025648;28;20189;-59
2022/03/23 08:18:06;;;;;;;15.40;13.90;;;;;;;8.27;87.78;101779.75;5028360;28;20203;-59
2022/03/23 08:20:35;;;;;;;18.10;15.30;;;;;;;8.36;87.62;101780.84;5029954;28;20268;-59
2022/03/23 08:23:04;;;;;;;16.53;14.93;;;;;;;8.45;87.32;101777.63;5026955;28;20191;-59
2022/03/23 08:25:29;;;;;;;16.20;14.30;;;;;;;8.55;86.97;101771.00;5027591;28;20185;-58
2022/03/23 08:27:56;;;;;;;16.77;14.90;;;;;;;8.64;86.50;101771.19;5028145;28;20700;-58
2022/03/23 08:30:22;;;;;;;16.10;14.37;;;;;;;8.72;86.35;101762.78;5030873;28;20214;-58
2022/03/23 08:32:48;;;;;;;16.77;15.07;;;;;;;8.81;85.62;101773.28;5022958;28;20222;-59
2022/03/23 08:35:13;;;;;;;15.87;14.47;;;;;;;8.90;85.54;101775.19;5025841;28;20196;-59
2022/03/23 08:37:38;;;;;;;15.47;13.97;;;;;;;8.98;85.41;101768.50;5029055;28;20230;-59
2022/03/23 08:40:05;;;;;;;18.20;14.83;;;;;;;9.10;84.54;101766.19;5027947;28;20214;-59
2022/03/23 08:42:30;;;;;;;15.60;13.97;;;;;;;9.19;83.94;101760.34;5036921;28;20222;-58
2022/03/23 08:44:56;;;;;;;17.40;15.60;;;;;;;9.30;83.68;101764.00;5031352;28;20209;-59
2022/03/23 08:47:21;;;;;;;17.67;15.70;;;;;;;9.40;83.08;101766.75;5021667;28;20203;-59
2022/03/23 08:49:47;;;;;;;18.37;15.10;;;;;;;9.49;83.08;101761.78;5028777;28;20227;-59
2022/03/23 08:52:12;;;;;;;17.03;15.33;;;;;;;9.61;82.55;101763.72;5032314;28;20322;-59
2022/03/23 08:54:38;;;;;;;17.10;15.30;;;;;;;9.67;82.70;101758.66;5036463;28;20194;-59
2022/03/23 08:57:04;;;;;;;17.33;14.50;;;;;;;9.74;82.69;101757.06;5033986;28;20185;-59
2022/03/23 08:59:30;;;;;;;16.70;14.97;;;;;;;9.84;82.74;101758.09;5020975;28;20208;-59
2022/03/23 09:01:56;;;;;;;15.80;14.30;;;;;;;9.90;82.32;101761.69;5039347;28;20214;-59
2022/03/23 09:04:22;;;;;;;16.60;14.87;;;;;;;9.98;81.99;101753.19;5033316;28;20677;-59
2022/03/23 09:06:47;;;;;;;15.80;14.30;;;;;;;10.02;81.49;101755.84;5027750;28;20255;-59
2022/03/23 09:09:12;;;;;;;15.93;14.33;;;;;;;10.09;80.99;101754.25;5033221;28;20261;-59
2022/03/23 09:11:38;;;;;;;16.13;14.53;;;;;;;10.22;81.01;101760.47;5034972;28;20243;-59
2022/03/23 09:14:04;;;;;;;16.33;14.63;;;;;;;10.31;80.63;101749.38;5030580;28;20194;-59
2022/03/23 09:16:29;;;;;;;16.97;15.27;;;;;;;10.37;80.15;101749.50;5027705;28;20229;-59
2022/03/23 09:18:55;;;;;;;17.77;15.97;;;;;;;10.44;79.50;101751.34;5027481;28;20612;-59
2022/03/23 09:21:21;;;;;;;17.27;15.57;;;;;;;10.52;78.90;101749.75;5034198;28;20188;-59
2022/03/23 09:23:47;;;;;;;18.70;16.47;;;;;;;10.60;78.98;101742.09;5034382;28;20306;-58
2022/03/23 09:26:12;;;;;;;17.63;15.83;;;;;;;10.73;78.83;101747.47;5032383;28;20527;-59
2022/03/23 09:28:39;;;;;;;19.53;17.53;;;;;;;10.83;77.89;101745.03;5028720;28;20235;-59
2022/03/23 09:31:05;;;;;;;19.70;17.53;;;;;;;10.84;77.07;101745.88;5029803;28;20187;-59
2022/03/23 09:33:31;;;;;;;19.83;17.80;;;;;;;10.90;76.33;101745.09;5021147;28;20215;-59
2022/03/23 09:35:56;;;;;;;19.30;17.27;;;;;;;10.89;76.10;101743.38;5025871;28;20188;-59
2022/03/23 09:38:22;;;;;;;18.47;16.47;;;;;;;10.90;76.53;101733.03;5027083;28;20207;-59
2022/03/23 09:40:50;;;;;;;20.40;17.97;;;;;;;10.93;76.08;101737.34;5020205;28;20192;-59
2022/03/23 09:43:19;;;;;;;22.83;19.37;;;;;;;11.06;74.80;101739.25;5023413;28;20191;-59
2022/03/23 09:48:11;;;;;;;21.23;18.13;;;;;;;11.10;73.92;101735.84;5022933;28;20267;-59
2022/03/23 09:50:40;;;;;;;19.93;17.83;;;;;;;11.17;74.06;101736.78;5026680;28;20197;-59
2022/03/23 09:53:07;;;;;;;20.03;17.93;;;;;;;11.27;74.59;101738.63;5026332;28;20197;-59
2022/03/23 09:55:33;;;;;;;19.53;17.27;;;;;;;11.36;74.55;101731.81;5027022;28;20637;-59
2022/03/23 09:58:00;;;;;;;19.73;17.73;;;;;;;11.47;74.25;101734.53;5025850;28;20208;-59
2022/03/23 10:00:32;;;;;;;20.47;16.87;;;;;;;11.50;74.07;101725.06;5027729;28;20184;-59
2022/03/23 10:02:57;;;;;;;18.73;16.40;;;;;;;11.60;74.09;101720.84;5021039;28;20195;-59
2022/03/23 10:05:58;;;;;;;18.53;16.57;;;;;;;11.70;73.82;101724.41;5023847;28;20176;-59
2022/03/23 10:08:45;;;;;;;20.40;18.17;;;;;;;11.81;73.55;101716.69;4962244;28;20232;-59
2022/03/23 10:11:34;;;;;;;21.30;18.20;;;;;;;11.89;73.78;101718.50;5020608;28;20640;-58
2022/03/23 10:14:18;;;;;;;21.27;17.77;;;;;;;11.99;73.49;101719.50;5027094;28;20188;-58
2022/03/23 10:17:08;;;;;;;19.93;17.40;;;;;;;12.07;72.94;101713.50;5036110;28;20573;-59
2022/03/23 10:19:33;;;;;;;22.57;18.97;;;;;;;12.17;72.92;101712.72;5024773;28;20212;-59
2022/03/23 10:22:09;;;;;;;22.60;20.20;;;;;;;12.20;71.95;101713.59;5030375;28;20206;-59
2022/03/23 10:24:35;;;;;;;20.10;18.10;;;;;;;12.31;72.57;101711.06;5028065;28;20197;-61
2022/03/23 10:27:17;;;;;;;21.40;18.13;;;;;;;12.45;72.49;101710.28;5027208;28;20209;-58
2022/03/23 10:29:53;;;;;;;19.93;17.83;;;;;;;12.55;72.35;101699.13;5033987;28;20677;-58
2022/03/23 10:32:21;;;;;;;20.83;18.73;;;;;;;12.68;71.98;101692.25;5023635;28;20223;-58
2022/03/23 10:34:49;;;;;;;18.37;16.47;;;;;;;12.75;71.99;101699.22;5029919;28;20184;-58
2022/03/23 10:37:31;;;;;;;22.60;17.70;;;;;;;12.84;71.64;101697.50;5031007;28;20626;-58
2022/03/23 10:39:58;;;;;;;22.27;18.87;;;;;;;12.89;70.21;101696.66;5030157;28;20208;-58
2022/03/23 10:42:27;;;;;;;18.60;16.70;;;;;;;12.91;70.41;101696.69;5026168;28;20272;-58
2022/03/23 10:45:12;;;;;;;19.17;17.13;;;;;;;12.98;70.40;101692.38;5033909;28;20204;-58
2022/03/23 10:47:40;;;;;;;19.30;16.47;;;;;;;13.05;70.60;101691.53;5028694;28;20250;-59
2022/03/23 10:50:15;;;;;;;20.07;17.97;;;;;;;13.12;70.63;101688.09;5031900;28;20199;-59
2022/03/23 10:53:05;;;;;;;21.23;18.17;;;;;;;13.24;70.32;101693.31;5021823;28;20184;-58
2022/03/23 10:55:35;;;;;;;20.17;17.93;;;;;;;13.31;69.95;101683.81;5035173;28;20198;-60
2022/03/23 11:01:22;;;;;;;21.70;19.43;;;;;;;13.53;69.50;101674.34;5030919;28;20218;-58
2022/03/23 11:03:49;;;;;;;22.87;20.33;;;;;;;13.61;68.72;101671.75;5023825;28;20672;-58
2022/03/23 11:06:23;;;;;;;23.60;20.90;;;;;;;13.66;67.95;101674.34;5030573;28;20206;-59
2022/03/23 11:08:49;;;;;;;23.40;20.90;;;;;;;13.73;67.39;101660.47;5033143;28;20294;-58
2022/03/23 11:16:37;;;;;;;23.47;18.73;;;;;;;13.94;65.60;101658.72;5036722;28;20280;-59
2022/03/23 11:19:11;;;;;;;26.27;20.43;;;;;;;14.08;65.95;101656.09;5030942;28;20214;-59
2022/03/23 11:21:56;;;;;;;24.83;20.80;;;;;;;14.20;64.67;101658.69;5029941;28;20189;-58
2022/03/23 11:24:21;;;;;;;22.17;19.80;;;;;;;14.22;64.82;101651.75;5036182;28;20218;-58
2022/03/23 11:26:48;;;;;;;23.93;21.43;;;;;;;14.42;64.02;101646.47;5032390;28;20281;-58
2022/03/23 11:29:14;;;;;;;22.80;20.50;;;;;;;14.43;64.33;101650.81;5031082;28;20680;-58
2022/03/23 11:31:40;;;;;;;22.27;19.87;;;;;;;14.47;63.89;101643.84;5027435;28;20396;-58
2022/03/23 11:34:09;;;;;;;25.73;20.83;;;;;;;14.57;63.32;101640.34;5027390;28;20601;-58
2022/03/23 11:36:35;;;;;;;22.47;19.33;;;;;;;14.63;63.42;101637.72;5025524;28;20228;-58